createdAt,value
2023-02-16T00:02:30.624Z,37.88
2023-02-16T00:05:25.081Z,37.53
2023-02-16T00:08:11.514Z,38.00
2023-02-16T00:11:17.064Z,37.85
2023-02-16T00:14:04.756Z,37.72
2023-02-16T00:16:51.645Z,37.08
2023-02-16T00:19:40.359Z,40.45
2023-02-16T00:22:27.059Z,38.20
2023-02-16T00:25:13.676Z,39.25
2023-02-16T00:28:02.667Z,39.50
2023-02-16T00:30:50.156Z,40.40
2023-02-16T00:33:36.957Z,39.42
2023-02-16T00:36:23.336Z,37.38
2023-02-16T00:39:09.747Z,39.33
2023-02-16T00:41:59.102Z,38.65
2023-02-16T00:44:49.688Z,38.35
2023-02-16T00:47:38.255Z,38.10
2023-02-16T00:50:27.365Z,40.05
2023-02-16T00:53:14.390Z,38.78
2023-02-16T00:56:00.835Z,40.60
2023-02-16T00:58:48.403Z,39.13
2023-02-16T01:01:37.269Z,38.38
2023-02-16T01:04:24.919Z,38.80
2023-02-16T01:07:30.686Z,39.00
2023-02-16T01:10:36.041Z,39.55
2023-02-16T01:13:23.579Z,38.60
2023-02-16T01:16:15.588Z,39.08
2023-02-16T01:19:03.814Z,38.25
2023-02-16T01:21:50.143Z,40.80
2023-02-16T01:24:36.774Z,39.20
2023-02-16T01:27:23.263Z,40.80
2023-02-16T01:30:15.021Z,40.13
2023-02-16T01:33:03.065Z,41.88
2023-02-16T01:35:51.758Z,41.53
2023-02-16T01:38:38.256Z,40.17
2023-02-16T01:41:38.451Z,40.42
2023-02-16T01:44:28.306Z,40.40
2023-02-16T01:47:27.225Z,41.03
2023-02-16T01:50:18.732Z,41.88
2023-02-16T01:53:17.053Z,39.67
2023-02-16T01:56:06.847Z,41.28
2023-02-16T01:58:57.542Z,41.00
2023-02-16T02:01:49.186Z,38.97
2023-02-16T02:04:59.044Z,38.20
2023-02-16T02:07:50.843Z,39.20
2023-02-16T02:10:46.707Z,39.08
2023-02-16T02:13:39.175Z,38.28
2023-02-16T02:16:28.656Z,39.50
2023-02-16T02:19:15.336Z,38.65
2023-02-16T02:22:55.628Z,37.75
2023-02-16T02:26:25.900Z,39.08
2023-02-16T02:29:29.666Z,39.00
2023-02-16T02:32:29.047Z,37.65
2023-02-16T02:35:30.463Z,37.92
2023-02-16T02:38:26.500Z,39.05
2023-02-16T02:41:22.928Z,39.65
2023-02-16T02:44:10.994Z,38.72
2023-02-16T02:46:58.687Z,39.17
2023-02-16T02:49:50.992Z,37.85
2023-02-16T02:52:37.503Z,39.28
2023-02-16T02:55:41.957Z,40.13
2023-02-16T02:58:49.768Z,38.60
2023-02-16T03:01:38.838Z,38.60
2023-02-16T03:04:30.243Z,40.85
2023-02-16T03:07:18.232Z,38.20
2023-02-16T03:10:18.889Z,38.50
2023-02-16T03:13:09.105Z,38.92
2023-02-16T03:15:58.082Z,38.58
2023-02-16T03:19:05.445Z,39.67
2023-02-16T03:22:12.127Z,39.35
2023-02-16T03:25:16.728Z,38.97
2023-02-16T03:28:25.673Z,39.05
2023-02-16T03:31:16.070Z,36.83
2023-02-16T03:34:03.461Z,38.88
2023-02-16T03:36:58.394Z,37.40
2023-02-16T03:40:02.669Z,38.78
2023-02-16T03:42:51.117Z,37.88
2023-02-16T03:45:40.546Z,37.35
2023-02-16T03:48:27.058Z,37.75
2023-02-16T03:51:13.658Z,38.75
2023-02-16T03:54:02.215Z,39.15
2023-02-16T03:56:48.463Z,39.72
2023-02-16T03:59:34.905Z,38.97
2023-02-16T04:02:22.021Z,38.83
2023-02-16T04:05:09.150Z,38.25
2023-02-16T04:07:55.486Z,39.63
2023-02-16T04:10:43.407Z,39.13
2023-02-16T04:13:29.166Z,38.90
2023-02-16T04:16:15.867Z,40.83
2023-02-16T04:19:02.403Z,39.28
2023-02-16T04:21:48.854Z,38.75
2023-02-16T04:24:35.377Z,38.92
2023-02-16T04:27:23.398Z,38.47
2023-02-16T04:30:13.605Z,40.00
2023-02-16T04:33:00.231Z,39.17
2023-02-16T04:35:46.700Z,39.42
2023-02-16T04:38:33.302Z,38.65
2023-02-16T04:41:19.948Z,41.13
2023-02-16T04:44:07.920Z,38.90
2023-02-16T04:46:54.840Z,38.83
2023-02-16T04:49:41.812Z,38.53
2023-02-16T04:52:28.539Z,39.05
2023-02-16T04:55:15.214Z,41.72
2023-02-16T04:58:01.848Z,39.65
2023-02-16T05:00:49.641Z,38.88
2023-02-16T05:03:36.434Z,40.33
2023-02-16T05:06:23.573Z,39.65
2023-02-16T05:09:10.269Z,39.92
2023-02-16T05:12:14.430Z,40.65
2023-02-16T05:15:01.101Z,40.38
2023-02-16T05:17:48.939Z,39.50
2023-02-16T05:20:53.178Z,40.83
2023-02-16T05:23:39.681Z,40.08
2023-02-16T05:26:26.522Z,42.00
2023-02-16T05:29:12.841Z,43.08
2023-02-16T05:31:59.605Z,41.22
2023-02-16T05:34:48.132Z,39.50
2023-02-16T05:37:34.552Z,43.17
2023-02-16T05:40:21.240Z,43.92
2023-02-16T05:43:07.686Z,41.35
2023-02-16T05:45:54.298Z,40.25
2023-02-16T05:48:40.685Z,41.47
2023-02-16T05:51:29.111Z,43.22
2023-02-16T05:54:17.971Z,41.63
2023-02-16T05:57:04.821Z,42.60
2023-02-16T05:59:51.096Z,40.15
2023-02-16T06:02:37.936Z,42.42
2023-02-16T06:05:24.432Z,41.00
2023-02-16T06:08:12.332Z,44.53
2023-02-16T06:10:59.297Z,44.00
2023-02-16T06:13:45.844Z,42.83
2023-02-16T06:16:33.618Z,42.28
2023-02-16T06:19:21.328Z,42.45
2023-02-16T06:22:07.596Z,42.10
2023-02-16T06:24:55.491Z,44.45
2023-02-16T06:27:42.238Z,43.30
2023-02-16T06:30:29.265Z,43.65
2023-02-16T06:33:16.031Z,43.17
2023-02-16T06:36:03.063Z,42.78
2023-02-16T06:38:50.128Z,41.13
2023-02-16T06:41:40.445Z,43.20
2023-02-16T06:44:27.222Z,41.85
2023-02-16T06:47:13.911Z,44.25
2023-02-16T06:50:00.565Z,40.42
2023-02-16T06:52:47.198Z,43.00
2023-02-16T06:55:36.677Z,43.55
2023-02-16T06:58:24.718Z,41.40
2023-02-16T07:01:12.037Z,43.42
2023-02-16T07:03:59.072Z,42.50
2023-02-16T07:06:45.702Z,40.38
2023-02-16T07:09:32.258Z,43.95
2023-02-16T07:12:18.970Z,42.03
2023-02-16T07:15:07.879Z,44.20
2023-02-16T07:17:54.649Z,41.42
2023-02-16T07:20:41.966Z,43.20
2023-02-16T07:23:28.638Z,44.17
2023-02-16T07:26:15.662Z,41.75
2023-02-16T07:29:02.619Z,41.78
2023-02-16T07:31:51.422Z,42.63
2023-02-16T07:34:38.331Z,41.38
2023-02-16T07:37:25.155Z,43.33
2023-02-16T07:40:13.422Z,41.88
2023-02-16T07:43:01.150Z,42.30
2023-02-16T07:45:47.633Z,41.42
2023-02-16T07:48:35.870Z,40.47
2023-02-16T07:51:23.740Z,42.63
2023-02-16T07:54:10.601Z,42.38
2023-02-16T07:56:57.049Z,42.65
2023-02-16T07:59:43.875Z,42.05
2023-02-16T08:02:30.305Z,40.45
2023-02-16T08:05:18.525Z,40.42
2023-02-16T08:08:05.466Z,39.33
2023-02-16T08:10:52.238Z,39.20
2023-02-16T08:13:39.070Z,39.03
2023-02-16T08:16:28.020Z,40.38
2023-02-16T08:19:14.381Z,40.40
2023-02-16T08:22:03.345Z,39.05
2023-02-16T08:24:50.018Z,39.78
2023-02-16T08:27:36.779Z,40.90
2023-02-16T08:30:24.937Z,39.35
2023-02-16T08:33:11.661Z,38.75
2023-02-16T08:35:58.143Z,38.90
2023-02-16T08:38:45.945Z,37.95
2023-02-16T08:41:35.322Z,39.50
2023-02-16T08:44:24.232Z,38.60
2023-02-16T08:47:10.917Z,40.42
2023-02-16T08:49:57.521Z,39.38
2023-02-16T08:52:45.635Z,40.67
2023-02-16T08:55:33.262Z,39.22
2023-02-16T08:58:19.855Z,40.55
2023-02-16T09:01:08.235Z,39.53
2023-02-16T09:03:55.509Z,40.50
2023-02-16T09:06:44.135Z,40.80
2023-02-16T09:09:30.574Z,42.67
2023-02-16T09:12:18.575Z,42.63
2023-02-16T09:15:05.826Z,42.83
2023-02-16T09:17:52.312Z,42.83
2023-02-16T09:20:40.022Z,44.58
2023-02-16T09:23:27.233Z,46.15
2023-02-16T09:26:15.305Z,44.70
2023-02-16T09:29:03.591Z,45.22
2023-02-16T09:31:50.112Z,47.40
2023-02-16T09:34:38.222Z,46.97
2023-02-16T09:37:24.784Z,46.80
2023-02-16T09:40:14.289Z,48.25
2023-02-16T09:43:09.690Z,46.53
2023-02-16T09:45:59.406Z,46.78
2023-02-16T09:48:49.346Z,48.30
2023-02-16T09:51:40.967Z,47.55
2023-02-16T09:54:36.223Z,49.00
2023-02-16T09:57:46.401Z,46.40
2023-02-16T10:00:45.412Z,47.72
2023-02-16T10:03:53.778Z,47.63
2023-02-16T10:06:54.013Z,49.08
2023-02-16T10:09:43.469Z,48.05
2023-02-16T10:12:34.448Z,48.35
2023-02-16T10:15:24.714Z,49.33
2023-02-16T10:18:22.071Z,48.90
2023-02-16T10:21:17.710Z,50.25
2023-02-16T10:24:07.709Z,51.40
2023-02-16T10:27:03.590Z,49.75
2023-02-16T10:29:50.143Z,48.90
2023-02-16T10:32:43.968Z,47.90
2023-02-16T10:35:42.822Z,47.63
2023-02-16T10:38:38.354Z,49.80
2023-02-16T10:41:33.840Z,46.92
2023-02-16T10:44:24.032Z,46.28
2023-02-16T10:47:22.592Z,45.72
2023-02-16T10:50:21.167Z,45.15
2023-02-16T10:53:14.679Z,46.30
2023-02-16T10:56:02.462Z,43.35
2023-02-16T10:58:49.085Z,45.38
2023-02-16T11:01:39.513Z,44.95
2023-02-16T11:04:36.595Z,44.78
2023-02-16T11:07:25.829Z,43.97
2023-02-16T11:10:21.491Z,44.28
2023-02-16T11:13:22.131Z,42.47
2023-02-16T11:16:14.202Z,47.22
2023-02-16T11:19:05.940Z,42.72
2023-02-16T11:21:55.234Z,43.20
2023-02-16T11:24:41.752Z,42.88
2023-02-16T11:27:29.830Z,42.13
2023-02-16T11:30:23.604Z,42.20
2023-02-16T11:33:23.402Z,44.05
2023-02-16T11:36:21.896Z,44.00
2023-02-16T11:39:18.379Z,43.30
2023-02-16T11:42:08.040Z,44.40
2023-02-16T11:44:56.322Z,44.03
2023-02-16T11:47:44.289Z,44.47
2023-02-16T11:50:33.486Z,43.92
2023-02-16T11:53:26.712Z,43.15
2023-02-16T11:56:22.866Z,44.35
2023-02-16T11:59:19.060Z,42.90
2023-02-16T12:02:29.299Z,40.00
2023-02-16T12:05:39.349Z,41.47
2023-02-16T12:08:36.750Z,41.83
2023-02-16T12:11:32.682Z,39.55
2023-02-16T12:14:36.472Z,39.15
2023-02-16T12:17:34.534Z,38.33
2023-02-16T12:20:37.914Z,40.03
2023-02-16T12:23:33.864Z,39.13
2023-02-16T12:26:40.509Z,40.42
2023-02-16T12:29:41.401Z,38.95
2023-02-16T12:32:42.719Z,39.25
2023-02-16T12:36:01.192Z,39.38
2023-02-16T12:39:00.398Z,38.42
2023-02-16T12:41:57.398Z,38.47
2023-02-16T12:44:49.002Z,37.10
2023-02-16T12:47:38.975Z,37.60
2023-02-16T12:50:28.275Z,36.17
2023-02-16T12:53:26.839Z,34.95
2023-02-16T12:56:18.549Z,34.28
2023-02-16T12:59:18.503Z,35.53
2023-02-16T13:02:15.898Z,32.30
2023-02-16T13:05:10.157Z,32.20
2023-02-16T13:08:03.415Z,30.98
2023-02-16T13:10:59.555Z,31.38
2023-02-16T13:13:48.870Z,29.10
2023-02-16T13:16:43.667Z,29.92
2023-02-16T13:19:30.237Z,28.90
2023-02-16T13:22:42.430Z,29.40
2023-02-16T13:25:42.453Z,28.52
2023-02-16T13:28:46.906Z,25.67
2023-02-16T13:31:47.348Z,25.60
2023-02-16T13:35:18.280Z,25.88
2023-02-16T13:41:32.301Z,25.00
2023-02-16T13:44:21.931Z,24.90
2023-02-16T13:47:14.025Z,24.75
2023-02-16T13:50:02.887Z,23.95
2023-02-16T13:52:50.787Z,24.45
2023-02-16T13:55:40.140Z,23.27
2023-02-16T13:58:34.059Z,21.67
2023-02-16T14:01:42.965Z,21.77
2023-02-16T14:05:05.309Z,21.58
2023-02-16T14:08:10.947Z,21.15
2023-02-16T14:11:12.030Z,22.63
2023-02-16T14:13:58.705Z,22.58
2023-02-16T14:16:46.667Z,21.63
2023-02-16T14:19:33.930Z,22.02
2023-02-16T14:22:23.006Z,21.60
2023-02-16T14:25:37.916Z,21.15
2023-02-16T14:29:07.633Z,20.90
2023-02-16T14:32:00.380Z,21.02
2023-02-16T14:34:53.689Z,20.65
2023-02-16T14:37:45.435Z,19.80
2023-02-16T14:40:51.873Z,18.23
2023-02-16T14:43:42.424Z,17.20
2023-02-16T14:46:45.071Z,17.73
2023-02-16T14:50:03.759Z,17.13
2023-02-16T14:53:27.438Z,17.83
2023-02-16T14:56:28.410Z,17.35
2023-02-16T14:59:29.172Z,18.13
2023-02-16T15:02:28.292Z,18.17
2023-02-16T15:05:18.797Z,19.08
2023-02-16T15:08:11.067Z,18.08
2023-02-16T15:10:58.030Z,17.73
2023-02-16T15:13:45.672Z,18.80
2023-02-16T15:16:33.590Z,18.48
2023-02-16T15:19:29.423Z,20.13
2023-02-16T15:22:22.572Z,19.38
2023-02-16T15:25:23.432Z,19.52
2023-02-16T15:28:21.877Z,20.25
2023-02-16T15:31:18.096Z,21.48
2023-02-16T15:34:07.530Z,23.27
2023-02-16T15:36:54.076Z,23.52
2023-02-16T15:39:53.495Z,23.17
2023-02-16T15:42:45.280Z,22.17
2023-02-16T15:45:35.230Z,23.33
2023-02-16T15:48:29.322Z,24.65
2023-02-16T15:51:19.476Z,25.65
2023-02-16T15:54:08.892Z,24.30
2023-02-16T15:56:59.584Z,23.67
2023-02-16T15:59:48.607Z,24.58
2023-02-16T16:02:39.382Z,24.73
2023-02-16T16:05:29.659Z,29.48
2023-02-16T16:08:18.272Z,27.20
2023-02-16T16:11:05.974Z,26.85
2023-02-16T16:13:54.551Z,27.60
2023-02-16T16:16:41.833Z,27.55
2023-02-16T16:19:34.324Z,28.10
2023-02-16T16:22:34.312Z,27.25
2023-02-16T16:25:37.760Z,27.50
2023-02-16T16:28:37.869Z,28.38
2023-02-16T16:31:40.881Z,28.52
2023-02-16T16:34:36.843Z,30.40
2023-02-16T16:37:28.389Z,28.17
2023-02-16T16:40:23.789Z,30.17
2023-02-16T16:43:18.317Z,32.17
2023-02-16T16:46:14.736Z,31.95
2023-02-16T16:49:04.459Z,31.90
2023-02-16T16:51:53.669Z,32.42
2023-02-16T16:54:40.579Z,33.50
2023-02-16T16:57:27.211Z,35.45
2023-02-16T17:00:15.777Z,33.38
2023-02-16T17:03:04.223Z,36.08
2023-02-16T17:05:51.885Z,34.85
2023-02-16T17:08:38.616Z,36.55
2023-02-16T17:11:27.479Z,35.97
2023-02-16T17:14:18.396Z,37.80
2023-02-16T17:17:06.092Z,37.13
2023-02-16T17:19:52.713Z,40.38
2023-02-16T17:22:40.604Z,42.78
2023-02-16T17:25:27.335Z,42.28
2023-02-16T17:28:15.477Z,41.67
2023-02-16T17:31:01.812Z,42.15
2023-02-16T17:33:48.350Z,41.97
2023-02-16T17:36:36.003Z,43.20
2023-02-16T17:39:23.870Z,44.35
2023-02-16T17:42:12.456Z,45.25
2023-02-16T17:44:59.105Z,46.22
2023-02-16T17:47:46.409Z,44.78
2023-02-16T17:50:33.044Z,46.88
2023-02-16T17:53:21.563Z,47.50
2023-02-16T17:56:12.137Z,47.90
2023-02-16T18:01:44.959Z,47.30
2023-02-16T18:04:31.720Z,50.10
2023-02-16T18:07:19.152Z,52.35
2023-02-16T18:10:07.061Z,51.30
2023-02-16T18:12:54.903Z,50.97
2023-02-16T18:15:45.265Z,52.35
2023-02-16T18:21:21.464Z,49.53
2023-02-16T18:24:08.273Z,51.55
2023-02-16T18:26:55.642Z,53.30
2023-02-16T18:29:43.731Z,50.22
2023-02-16T18:32:30.196Z,50.00
2023-02-16T18:35:18.414Z,51.45
2023-02-16T18:38:05.009Z,49.05
2023-02-16T18:40:52.902Z,51.38
2023-02-16T18:43:39.696Z,48.55
2023-02-16T18:46:27.707Z,48.53
2023-02-16T18:49:14.489Z,49.85
2023-02-16T18:52:01.051Z,50.78
2023-02-16T18:54:47.631Z,50.15
2023-02-16T18:57:34.466Z,48.63
2023-02-16T19:00:21.821Z,48.53
2023-02-16T19:03:10.254Z,48.83
2023-02-16T19:05:56.735Z,47.20
2023-02-16T19:08:43.297Z,49.60
2023-02-16T19:11:30.767Z,46.78
2023-02-16T19:14:18.600Z,46.03
2023-02-16T19:17:05.176Z,44.30
2023-02-16T19:19:53.234Z,45.42
2023-02-16T19:22:39.974Z,46.05
2023-02-16T19:25:27.129Z,47.60
2023-02-16T19:28:13.251Z,50.20
2023-02-16T19:31:01.956Z,45.53
2023-02-16T19:33:49.596Z,44.25
2023-02-16T19:36:37.542Z,42.15
2023-02-16T19:39:24.109Z,43.45
2023-02-16T19:42:10.796Z,39.72
2023-02-16T19:45:00.458Z,42.75
2023-02-16T19:47:47.090Z,43.35
2023-02-16T19:50:33.631Z,42.35
2023-02-16T19:53:21.617Z,40.67
2023-02-16T19:56:10.603Z,40.58
2023-02-16T19:58:58.290Z,36.90
2023-02-16T20:01:44.618Z,38.83
2023-02-16T20:04:31.213Z,36.03
2023-02-16T20:07:17.684Z,37.92
2023-02-16T20:10:06.475Z,35.20
2023-02-16T20:12:52.872Z,34.30
2023-02-16T20:15:39.683Z,37.13
2023-02-16T20:18:26.406Z,37.28
2023-02-16T20:21:15.139Z,35.28
2023-02-16T20:24:04.591Z,34.35
2023-02-16T20:26:53.016Z,32.28
2023-02-16T20:29:39.753Z,35.08
2023-02-16T20:32:26.953Z,33.92
2023-02-16T20:35:13.869Z,32.88
2023-02-16T20:38:00.596Z,34.58
2023-02-16T20:40:47.505Z,33.25
2023-02-16T20:43:36.131Z,31.98
2023-02-16T20:46:23.942Z,31.20
2023-02-16T20:49:10.692Z,31.27
2023-02-16T20:51:57.200Z,31.45
2023-02-16T20:54:44.139Z,31.90
2023-02-16T20:57:30.826Z,30.75
2023-02-16T21:00:21.726Z,29.77
2023-02-16T21:03:08.407Z,30.52
2023-02-16T21:05:55.278Z,29.48
2023-02-16T21:08:41.643Z,29.80
2023-02-16T21:11:28.207Z,29.08
2023-02-16T21:14:14.814Z,27.00
2023-02-16T21:17:02.691Z,28.10
2023-02-16T21:19:49.668Z,27.10
2023-02-16T21:22:36.028Z,23.77
2023-02-16T21:25:22.437Z,23.15
2023-02-16T21:28:08.964Z,23.83
2023-02-16T21:30:55.574Z,22.65
2023-02-16T21:33:43.613Z,21.45
2023-02-16T21:36:29.996Z,22.02
2023-02-16T21:39:16.735Z,21.65
2023-02-16T21:42:02.196Z,21.45
2023-02-16T21:44:50.038Z,18.65
2023-02-16T21:47:54.712Z,18.40
2023-02-16T21:50:43.175Z,18.02
2023-02-16T21:53:30.628Z,17.13
2023-02-16T21:56:27.139Z,15.07
2023-02-16T21:59:15.335Z,14.20
2023-02-16T22:02:01.931Z,13.68
2023-02-16T22:04:49.638Z,14.65
2023-02-16T22:07:37.497Z,14.30
2023-02-16T22:10:24.137Z,12.43
2023-02-16T22:13:11.039Z,13.32
2023-02-16T22:15:57.382Z,12.88
2023-02-16T22:18:44.318Z,12.55
2023-02-16T22:21:31.809Z,12.65
2023-02-16T22:24:21.120Z,13.23
2023-02-16T22:27:07.786Z,13.07
2023-02-16T22:29:54.272Z,12.60
2023-02-16T22:32:41.047Z,13.93
2023-02-16T22:35:27.534Z,13.07
2023-02-16T22:38:14.057Z,14.48
2023-02-16T22:41:05.403Z,13.95
2023-02-16T22:43:53.930Z,15.02
2023-02-16T22:46:40.672Z,15.30
2023-02-16T22:49:27.259Z,15.23
2023-02-16T22:52:13.863Z,15.43
2023-02-16T22:55:00.335Z,15.00
2023-02-16T22:57:48.830Z,15.23
2023-02-16T23:03:46.822Z,15.48
2023-02-16T23:06:36.508Z,14.68
2023-02-16T23:09:23.617Z,13.57
2023-02-16T23:12:10.624Z,15.88
2023-02-16T23:14:58.483Z,15.93
2023-02-16T23:17:45.184Z,14.82
2023-02-16T23:20:31.630Z,16.83
2023-02-16T23:23:18.084Z,15.85
2023-02-16T23:26:07.206Z,19.38
2023-02-16T23:28:56.007Z,19.08
2023-02-16T23:31:46.667Z,19.30
2023-02-16T23:34:33.495Z,20.73
2023-02-16T23:37:19.994Z,19.25
2023-02-16T23:40:08.287Z,22.10
2023-02-16T23:42:54.674Z,21.63
2023-02-16T23:45:41.300Z,21.75
2023-02-16T23:48:30.497Z,20.38
2023-02-16T23:51:17.436Z,21.60
2023-02-16T23:54:04.157Z,21.85
2023-02-16T23:56:52.785Z,22.10
2023-02-16T23:59:39.635Z,23.40
